Time;durP1;ratioP1;P1;durP2;ratioP2;P2;SDS_P1;SDS_P2;PMS_P1;PMS_P2;Temp;Humidity;BMP_temperature;BMP_pressure;BME280_temperature;BME280_humidity;BME280_pressure;Samples;Min_cycle;Max_cycle;Signal;HPM_P1;HPM_P2
2024/02/06 00:01:48;;;;;;;10.43;7.43;;;;;;;;;;5038188;28;20029;-76
2024/02/06 00:04:15;;;;;;;13.50;7.47;;;;;;;;;;5043463;28;20112;-77
2024/02/06 00:06:41;;;;;;;14.60;7.47;;;;;;;;;;5053115;28;20021;-77
2024/02/06 00:09:11;;;;;;;14.85;7.80;;;;;;;;;;5054943;28;20089;-77
2024/02/06 00:11:37;;;;;;;12.00;7.72;;;;;;;;;;5029207;28;20062;-76
2024/02/06 00:14:03;;;;;;;11.15;7.72;;;;;;;;;;5041816;28;20116;-77
2024/02/06 00:16:28;;;;;;;10.55;7.68;;;;;;;;;;5044371;28;20123;-77
2024/02/06 00:18:54;;;;;;;14.88;8.15;;;;;;;;;;5063449;28;20024;-79
2024/02/06 00:21:19;;;;;;;12.75;8.27;;;;;;;;;;5041024;28;20433;-77
2024/02/06 00:23:45;;;;;;;12.60;7.88;;;;;;;;;;5050449;28;20025;-77
2024/02/06 00:26:10;;;;;;;13.10;8.15;;;;;;;;;;5046335;28;20408;-77
2024/02/06 00:28:35;;;;;;;12.63;8.02;;;;;;;;;;5054545;28;20159;-76
2024/02/06 00:31:01;;;;;;;12.32;7.32;;;;;;;;;;5035629;28;20512;-77
2024/02/06 00:33:29;;;;;;;13.43;7.78;;;;;;;;;;5045427;28;20029;-77
2024/02/06 00:35:57;;;;;;;11.93;7.60;;;;;;;;;;5040447;28;20029;-77
2024/02/06 00:38:22;;;;;;;11.48;7.28;;;;;;;;;;5049675;28;20025;-77
2024/02/06 00:40:48;;;;;;;10.98;7.10;;;;;;;;;;5040466;28;20032;-77
2024/02/06 00:43:13;;;;;;;15.15;7.75;;;;;;;;;;5043005;28;20423;-77
2024/02/06 00:45:39;;;;;;;9.48;6.63;;;;;;;;;;5041474;28;20123;-77
2024/02/06 00:48:05;;;;;;;12.93;7.75;;;;;;;;;;5036292;28;20071;-77
2024/02/06 00:50:34;;;;;;;11.13;6.80;;;;;;;;;;5040088;28;20378;-77
2024/02/06 00:52:59;;;;;;;12.63;7.18;;;;;;;;;;5040157;28;20392;-77
2024/02/06 00:55:26;;;;;;;11.70;7.13;;;;;;;;;;5038894;28;20024;-77
2024/02/06 00:57:52;;;;;;;11.20;6.68;;;;;;;;;;5038796;28;20636;-77
2024/02/06 01:00:19;;;;;;;13.00;6.97;;;;;;;;;;5039171;28;20435;-77
2024/02/06 01:02:48;;;;;;;12.40;7.07;;;;;;;;;;5039789;28;20175;-77
2024/02/06 01:05:14;;;;;;;10.85;6.47;;;;;;;;;;5037967;28;21768;-76
2024/02/06 01:07:42;;;;;;;13.30;7.22;;;;;;;;;;5037497;28;20111;-76
2024/02/06 01:10:10;;;;;;;12.75;6.82;;;;;;;;;;5046267;28;20026;-77
2024/02/06 01:12:37;;;;;;;12.38;6.55;;;;;;;;;;5044732;28;20056;-77
2024/02/06 01:15:02;;;;;;;12.23;6.32;;;;;;;;;;5039915;28;20025;-77
2024/02/06 01:17:28;;;;;;;12.13;6.80;;;;;;;;;;5040249;28;20123;-77
2024/02/06 01:19:55;;;;;;;12.45;6.38;;;;;;;;;;5037766;28;20392;-77
2024/02/06 01:22:21;;;;;;;13.30;7.15;;;;;;;;;;5041920;28;20020;-77
2024/02/06 01:24:47;;;;;;;10.68;6.15;;;;;;;;;;5038596;28;20039;-76
2024/02/06 01:27:12;;;;;;;12.05;6.20;;;;;;;;;;5036648;28;20426;-77
2024/02/06 01:29:38;;;;;;;11.75;5.85;;;;;;;;;;5036781;28;20021;-85
2024/02/06 01:32:06;;;;;;;11.40;6.28;;;;;;;;;;5041239;28;20035;-85
2024/02/06 01:34:31;;;;;;;11.77;6.40;;;;;;;;;;5041336;28;20075;-85
2024/02/06 01:36:57;;;;;;;12.10;5.13;;;;;;;;;;5022472;28;20111;-84
2024/02/06 01:39:22;;;;;;;9.88;6.35;;;;;;;;;;5024801;28;20415;-85
2024/02/06 01:41:47;;;;;;;12.13;5.35;;;;;;;;;;5041541;28;20060;-85
2024/02/06 01:44:13;;;;;;;9.70;5.55;;;;;;;;;;5040118;28;20059;-85
2024/02/06 01:46:39;;;;;;;9.95;5.43;;;;;;;;;;5036711;28;20036;-85
2024/02/06 01:49:06;;;;;;;10.25;5.70;;;;;;;;;;5040848;28;20025;-85
2024/02/06 01:51:35;;;;;;;11.48;6.07;;;;;;;;;;5038932;28;20085;-84
2024/02/06 01:54:01;;;;;;;8.80;5.55;;;;;;;;;;5038156;28;20029;-85
2024/02/06 01:56:28;;;;;;;13.45;5.30;;;;;;;;;;5038472;28;20021;-85
2024/02/06 01:58:54;;;;;;;12.80;5.40;;;;;;;;;;5023168;28;20397;-85
2024/02/06 02:01:21;;;;;;;10.70;4.63;;;;;;;;;;5038239;28;20028;-85
2024/02/06 02:03:47;;;;;;;7.40;4.80;;;;;;;;;;5037384;28;20030;-85
2024/02/06 02:06:14;;;;;;;9.65;4.80;;;;;;;;;;5037617;28;20082;-86
2024/02/06 02:08:41;;;;;;;8.90;4.18;;;;;;;;;;5039025;28;20025;-85
2024/02/06 02:11:07;;;;;;;10.93;4.35;;;;;;;;;;5040298;28;20025;-84
2024/02/06 02:13:33;;;;;;;8.50;4.38;;;;;;;;;;5037028;28;20119;-85
2024/02/06 02:15:59;;;;;;;8.00;4.50;;;;;;;;;;5034316;28;20021;-83
2024/02/06 02:18:36;;;;;;;10.90;4.20;;;;;;;;;;5037016;28;20040;-85
2024/02/06 02:21:09;;;;;;;8.65;4.85;;;;;;;;;;5022439;28;20049;-84
2024/02/06 02:23:36;;;;;;;11.90;4.97;;;;;;;;;;5037946;28;20029;-85
2024/02/06 02:26:03;;;;;;;12.10;4.68;;;;;;;;;;5036971;28;20511;-85
2024/02/06 02:28:30;;;;;;;13.00;4.65;;;;;;;;;;5041547;28;20040;-84
2024/02/06 02:30:57;;;;;;;9.30;4.55;;;;;;;;;;5036987;28;20033;-85
2024/02/06 02:33:23;;;;;;;9.85;4.63;;;;;;;;;;5040131;28;20021;-85
2024/02/06 02:35:50;;;;;;;12.10;4.78;;;;;;;;;;5038386;28;20366;-84
2024/02/06 02:38:18;;;;;;;14.18;5.05;;;;;;;;;;5039679;28;20028;-85
2024/02/06 02:40:44;;;;;;;10.40;4.95;;;;;;;;;;5024863;28;20075;-77
2024/02/06 02:43:09;;;;;;;13.30;4.47;;;;;;;;;;5037989;28;20020;-77
2024/02/06 02:45:35;;;;;;;12.18;4.40;;;;;;;;;;5037178;28;20033;-77
2024/02/06 02:48:01;;;;;;;12.68;4.65;;;;;;;;;;5035239;28;20280;-77
2024/02/06 02:50:27;;;;;;;9.90;4.70;;;;;;;;;;5042291;28;20528;-77
2024/02/06 02:52:53;;;;;;;10.70;5.25;;;;;;;;;;5039247;28;20029;-76
2024/02/06 02:55:22;;;;;;;10.07;4.55;;;;;;;;;;5039066;28;20140;-77
2024/02/06 02:57:47;;;;;;;9.85;5.28;;;;;;;;;;5041747;28;20026;-77
2024/02/06 03:00:13;;;;;;;9.43;4.78;;;;;;;;;;5046981;28;20140;-77
2024/02/06 03:02:40;;;;;;;10.65;4.85;;;;;;;;;;5041051;28;20047;-77
2024/02/06 03:05:08;;;;;;;10.60;5.40;;;;;;;;;;5044078;28;20127;-77
2024/02/06 03:07:35;;;;;;;11.80;5.57;;;;;;;;;;5045344;28;20476;-77
2024/02/06 03:10:00;;;;;;;11.38;5.90;;;;;;;;;;5037746;28;20159;-77
2024/02/06 03:12:31;;;;;;;10.57;6.13;;;;;;;;;;5038326;28;20532;-77
2024/02/06 03:15:00;;;;;;;9.70;5.93;;;;;;;;;;5043308;28;20028;-77
2024/02/06 03:17:27;;;;;;;10.30;6.03;;;;;;;;;;5045393;28;20021;-77
2024/02/06 03:19:53;;;;;;;12.48;6.22;;;;;;;;;;5045557;28;20057;-76
2024/02/06 03:22:22;;;;;;;11.23;6.13;;;;;;;;;;5048353;28;20095;-77
2024/02/06 03:24:50;;;;;;;11.18;6.22;;;;;;;;;;5043530;28;20086;-77
2024/02/06 03:27:16;;;;;;;11.95;5.88;;;;;;;;;;5047617;28;20108;-77
2024/02/06 03:29:42;;;;;;;10.93;5.60;;;;;;;;;;5049932;28;20179;-76
2024/02/06 03:32:10;;;;;;;12.27;5.75;;;;;;;;;;5049186;28;20054;-77
2024/02/06 03:34:37;;;;;;;11.63;6.40;;;;;;;;;;5041626;28;20025;-77
2024/02/06 03:37:02;;;;;;;12.68;6.10;;;;;;;;;;5039778;28;20055;-77
2024/02/06 03:39:28;;;;;;;11.38;5.93;;;;;;;;;;5047841;28;20449;-77
2024/02/06 03:41:54;;;;;;;11.07;6.05;;;;;;;;;;5047162;28;20044;-77
2024/02/06 03:44:20;;;;;;;10.60;5.88;;;;;;;;;;5047688;28;20466;-77
2024/02/06 03:46:47;;;;;;;10.25;5.88;;;;;;;;;;5040731;28;20025;-77
2024/02/06 03:49:12;;;;;;;7.93;5.25;;;;;;;;;;5041089;28;20032;-77
2024/02/06 03:51:38;;;;;;;11.57;5.60;;;;;;;;;;5025601;28;20025;-85
2024/02/06 03:54:05;;;;;;;9.57;6.15;;;;;;;;;;5036361;28;20044;-85
2024/02/06 03:56:31;;;;;;;12.85;6.47;;;;;;;;;;5034105;28;20045;-85
2024/02/06 03:58:56;;;;;;;11.95;5.90;;;;;;;;;;5016456;28;20099;-84
2024/02/06 04:01:21;;;;;;;10.80;5.82;;;;;;;;;;5034314;28;20342;-85
2024/02/06 04:03:47;;;;;;;12.93;6.88;;;;;;;;;;5032013;28;20021;-86
2024/02/06 04:06:13;;;;;;;10.73;5.38;;;;;;;;;;5033435;28;20033;-85
2024/02/06 04:08:38;;;;;;;11.68;6.47;;;;;;;;;;5033372;28;20029;-85
2024/02/06 04:11:06;;;;;;;14.88;6.20;;;;;;;;;;5034837;28;20024;-85
2024/02/06 04:13:32;;;;;;;10.68;5.57;;;;;;;;;;5035046;28;20171;-85
2024/02/06 04:15:58;;;;;;;10.68;5.97;;;;;;;;;;5032502;28;20459;-85
2024/02/06 04:18:24;;;;;;;9.55;5.90;;;;;;;;;;5014030;28;20033;-84
2024/02/06 04:20:50;;;;;;;9.15;4.78;;;;;;;;;;5035916;28;20021;-84
2024/02/06 04:23:16;;;;;;;12.73;5.68;;;;;;;;;;5034693;28;20059;-85
2024/02/06 04:25:43;;;;;;;12.45;5.22;;;;;;;;;;5035281;28;20021;-84
2024/02/06 04:28:08;;;;;;;12.38;5.43;;;;;;;;;;5018398;28;20025;-85
2024/02/06 04:30:35;;;;;;;9.52;4.70;;;;;;;;;;5035453;28;20417;-84
2024/02/06 04:33:00;;;;;;;10.80;5.20;;;;;;;;;;5035608;28;20055;-85
2024/02/06 04:35:26;;;;;;;12.15;5.15;;;;;;;;;;5034591;28;20492;-85
2024/02/06 04:37:53;;;;;;;11.27;5.10;;;;;;;;;;5038548;28;20036;-85
2024/02/06 04:40:18;;;;;;;13.65;5.40;;;;;;;;;;5017537;28;20724;-86
2024/02/06 04:42:45;;;;;;;12.93;5.07;;;;;;;;;;5037809;28;20025;-84
2024/02/06 04:45:10;;;;;;;10.88;5.35;;;;;;;;;;5038980;28;20060;-84
2024/02/06 04:47:36;;;;;;;14.73;5.18;;;;;;;;;;5025810;28;20481;-84
2024/02/06 04:50:02;;;;;;;13.07;6.10;;;;;;;;;;5037243;28;20033;-84
2024/02/06 04:52:28;;;;;;;14.85;5.88;;;;;;;;;;5039524;28;20517;-84
2024/02/06 04:54:53;;;;;;;10.50;5.40;;;;;;;;;;5028919;28;20025;-86
2024/02/06 04:57:20;;;;;;;13.05;5.60;;;;;;;;;;5036813;28;20384;-84
2024/02/06 04:59:46;;;;;;;11.23;5.85;;;;;;;;;;5038247;28;20017;-77
2024/02/06 05:02:13;;;;;;;11.40;6.00;;;;;;;;;;5034847;28;20227;-77
2024/02/06 05:04:40;;;;;;;10.80;5.95;;;;;;;;;;5036155;28;20021;-76
2024/02/06 05:07:07;;;;;;;9.85;6.18;;;;;;;;;;5047218;28;20068;-76
2024/02/06 05:09:32;;;;;;;14.93;6.55;;;;;;;;;;5041606;28;20079;-77
2024/02/06 05:12:01;;;;;;;11.43;5.88;;;;;;;;;;5035974;28;20393;-77
2024/02/06 05:14:27;;;;;;;15.10;5.93;;;;;;;;;;5040615;28;20028;-77
2024/02/06 05:16:53;;;;;;;10.90;6.07;;;;;;;;;;5033932;28;20029;-77
2024/02/06 05:19:19;;;;;;;8.13;5.47;;;;;;;;;;5035388;28;20443;-77
2024/02/06 05:21:46;;;;;;;10.73;5.97;;;;;;;;;;5035559;28;20029;-77
2024/02/06 05:24:12;;;;;;;11.68;5.88;;;;;;;;;;5038212;28;20059;-77
2024/02/06 05:26:39;;;;;;;12.57;6.45;;;;;;;;;;5040707;28;20025;-77
2024/02/06 05:29:06;;;;;;;10.18;5.80;;;;;;;;;;5036587;28;20055;-77
2024/02/06 05:31:32;;;;;;;14.40;5.80;;;;;;;;;;5040554;28;20032;-77
2024/02/06 05:34:01;;;;;;;13.10;6.50;;;;;;;;;;5033879;28;20037;-77
2024/02/06 05:36:29;;;;;;;15.15;5.97;;;;;;;;;;5035089;28;20025;-77
2024/02/06 05:38:54;;;;;;;14.02;6.45;;;;;;;;;;5039234;28;20028;-77
2024/02/06 05:41:20;;;;;;;12.35;5.60;;;;;;;;;;5037991;28;20086;-77
2024/02/06 05:43:45;;;;;;;14.20;5.65;;;;;;;;;;5032773;28;20033;-77
2024/02/06 05:46:11;;;;;;;16.60;6.30;;;;;;;;;;5041853;28;20392;-77
2024/02/06 05:48:36;;;;;;;12.82;5.82;;;;;;;;;;5034342;28;20456;-77
2024/02/06 05:51:05;;;;;;;14.73;5.90;;;;;;;;;;5039761;28;20048;-77
2024/02/06 05:53:33;;;;;;;15.02;5.90;;;;;;;;;;5040920;28;20027;-77
2024/02/06 05:56:06;;;;;;;12.75;6.50;;;;;;;;;;5034908;28;20081;-77
2024/02/06 05:58:33;;;;;;;10.25;5.15;;;;;;;;;;5033266;28;20030;-77
2024/02/06 06:00:59;;;;;;;14.27;6.13;;;;;;;;;;5032464;28;20037;-77
2024/02/06 06:03:24;;;;;;;14.13;6.35;;;;;;;;;;5036754;28;20029;-77
2024/02/06 06:05:50;;;;;;;12.88;5.80;;;;;;;;;;5032055;28;20049;-77
2024/02/06 06:08:16;;;;;;;12.68;5.72;;;;;;;;;;5034140;28;20116;-77
2024/02/06 06:10:44;;;;;;;9.07;5.57;;;;;;;;;;5033888;28;20059;-77
2024/02/06 06:13:09;;;;;;;12.90;5.53;;;;;;;;;;5034375;28;20021;-77
2024/02/06 06:15:37;;;;;;;11.65;5.43;;;;;;;;;;5035554;28;20485;-77
2024/02/06 06:18:03;;;;;;;10.27;5.03;;;;;;;;;;5037618;28;20440;-77
2024/02/06 06:20:29;;;;;;;11.45;4.88;;;;;;;;;;5037489;28;20078;-77
2024/02/06 06:22:54;;;;;;;13.90;4.90;;;;;;;;;;5037417;28;20025;-77
2024/02/06 06:25:20;;;;;;;11.05;4.88;;;;;;;;;;5036557;28;20022;-79
2024/02/06 06:27:47;;;;;;;12.30;5.25;;;;;;;;;;5032854;28;20436;-80
2024/02/06 06:30:12;;;;;;;12.80;5.35;;;;;;;;;;5032912;28;20032;-77
2024/02/06 06:32:40;;;;;;;13.50;5.03;;;;;;;;;;5032697;28;20025;-77
2024/02/06 06:35:05;;;;;;;11.60;4.80;;;;;;;;;;5034564;28;20120;-79
2024/02/06 06:37:31;;;;;;;18.05;5.10;;;;;;;;;;5036886;28;20107;-77
2024/02/06 06:39:57;;;;;;;11.32;4.47;;;;;;;;;;5033293;28;20029;-77
2024/02/06 06:42:24;;;;;;;9.55;4.30;;;;;;;;;;5037106;28;20067;-76
2024/02/06 06:44:49;;;;;;;13.98;4.75;;;;;;;;;;5035799;28;20064;-77
2024/02/06 06:47:18;;;;;;;12.60;5.13;;;;;;;;;;5033463;28;20033;-77
2024/02/06 06:49:46;;;;;;;14.32;5.18;;;;;;;;;;5033294;28;20528;-77
2024/02/06 06:52:11;;;;;;;11.57;4.57;;;;;;;;;;5036889;28;20028;-77
2024/02/06 06:54:39;;;;;;;10.80;4.78;;;;;;;;;;5035786;28;20031;-77
2024/02/06 06:57:04;;;;;;;12.60;4.72;;;;;;;;;;5031982;28;20025;-77
2024/02/06 06:59:31;;;;;;;11.07;4.45;;;;;;;;;;5033895;28;20397;-77
2024/02/06 07:01:59;;;;;;;14.40;4.93;;;;;;;;;;5015552;28;20040;-77
2024/02/06 07:04:26;;;;;;;13.52;5.25;;;;;;;;;;5033042;28;20025;-77
2024/02/06 07:06:52;;;;;;;20.23;5.53;;;;;;;;;;5015016;28;20050;-77
2024/02/06 07:09:21;;;;;;;12.10;4.95;;;;;;;;;;5036523;28;20033;-77
2024/02/06 07:11:48;;;;;;;10.82;4.85;;;;;;;;;;5036562;28;20472;-77
2024/02/06 07:14:14;;;;;;;12.43;4.93;;;;;;;;;;5033852;28;20104;-77
2024/02/06 07:16:40;;;;;;;13.00;4.97;;;;;;;;;;5031427;28;20159;-77
2024/02/06 07:19:07;;;;;;;10.27;4.75;;;;;;;;;;5032163;28;20041;-77
2024/02/06 07:21:34;;;;;;;12.30;4.97;;;;;;;;;;5032987;28;20057;-77
2024/02/06 07:24:01;;;;;;;12.05;4.57;;;;;;;;;;5048942;28;20025;-76
2024/02/06 07:26:27;;;;;;;10.73;5.05;;;;;;;;;;5038381;28;20040;-77
2024/02/06 07:28:56;;;;;;;10.27;4.43;;;;;;;;;;5017495;28;20035;-77
2024/02/06 07:31:24;;;;;;;11.77;4.47;;;;;;;;;;5034132;28;20056;-77
2024/02/06 07:33:50;;;;;;;10.63;4.75;;;;;;;;;;5031805;28;20036;-77
2024/02/06 07:36:15;;;;;;;11.02;4.65;;;;;;;;;;5034066;28;20112;-77
2024/02/06 07:38:42;;;;;;;14.10;4.78;;;;;;;;;;5038467;28;20025;-77
2024/02/06 07:41:07;;;;;;;11.02;4.40;;;;;;;;;;5035808;28;20032;-77
2024/02/06 07:43:37;;;;;;;11.90;4.75;;;;;;;;;;5036425;28;20029;-77
2024/02/06 07:46:04;;;;;;;8.80;4.38;;;;;;;;;;5037527;28;20071;-77
2024/02/06 07:48:30;;;;;;;11.52;4.82;;;;;;;;;;5055322;28;20059;-77
2024/02/06 07:50:56;;;;;;;13.50;4.72;;;;;;;;;;5038816;28;20088;-77
2024/02/06 07:53:23;;;;;;;11.35;4.32;;;;;;;;;;5039930;28;20040;-77
2024/02/06 07:55:50;;;;;;;14.18;4.60;;;;;;;;;;5045743;28;20112;-77
2024/02/06 07:58:16;;;;;;;9.05;4.13;;;;;;;;;;5038765;28;20370;-76
2024/02/06 08:00:41;;;;;;;14.10;4.40;;;;;;;;;;5062698;28;20116;-77
2024/02/06 08:03:07;;;;;;;11.13;4.70;;;;;;;;;;5054370;28;20074;-76
2024/02/06 08:05:32;;;;;;;10.85;4.18;;;;;;;;;;5038034;28;20483;-77
2024/02/06 08:07:58;;;;;;;10.50;4.13;;;;;;;;;;5040671;28;20109;-77
2024/02/06 08:10:23;;;;;;;11.57;4.65;;;;;;;;;;5047949;28;20027;-77
2024/02/06 08:12:52;;;;;;;14.68;4.63;;;;;;;;;;5038547;28;20419;-77
2024/02/06 08:15:18;;;;;;;15.48;4.63;;;;;;;;;;5058502;28;20438;-77
2024/02/06 08:17:47;;;;;;;16.70;4.90;;;;;;;;;;5048400;28;20021;-77
2024/02/06 08:20:13;;;;;;;13.20;4.25;;;;;;;;;;5052553;28;20032;-77
2024/02/06 08:22:38;;;;;;;14.52;4.20;;;;;;;;;;5051014;28;20548;-77
2024/02/06 08:25:07;;;;;;;13.30;4.43;;;;;;;;;;5054877;28;20166;-77
2024/02/06 08:27:34;;;;;;;13.50;4.68;;;;;;;;;;5050958;28;20033;-77
2024/02/06 08:30:03;;;;;;;15.70;4.70;;;;;;;;;;5054206;28;20036;-86
2024/02/06 08:32:29;;;;;;;16.10;5.07;;;;;;;;;;5034187;28;20032;-85
2024/02/06 08:34:54;;;;;;;14.48;4.60;;;;;;;;;;5042543;28;20029;-87
2024/02/06 08:37:20;;;;;;;12.57;4.40;;;;;;;;;;5037849;28;20020;-87
2024/02/06 08:39:45;;;;;;;11.20;3.90;;;;;;;;;;5055627;28;20033;-87
2024/02/06 08:42:11;;;;;;;16.05;4.72;;;;;;;;;;5031838;28;20029;-87
2024/02/06 08:44:36;;;;;;;11.23;4.07;;;;;;;;;;5049574;28;20024;-87
2024/02/06 08:47:01;;;;;;;12.90;4.50;;;;;;;;;;5059418;28;20025;-86
2024/02/06 08:49:27;;;;;;;10.13;4.30;;;;;;;;;;5052008;28;20369;-87
2024/02/06 08:51:52;;;;;;;13.38;3.85;;;;;;;;;;5031664;28;20017;-88
2024/02/06 08:54:21;;;;;;;12.30;4.05;;;;;;;;;;5024415;28;20053;-89
2024/02/06 08:56:48;;;;;;;13.02;4.13;;;;;;;;;;5048283;28;20115;-88
2024/02/06 08:59:13;;;;;;;12.90;4.53;;;;;;;;;;5034559;28;20025;-86
2024/02/06 09:01:38;;;;;;;13.80;4.00;;;;;;;;;;5050943;28;20114;-87
2024/02/06 09:04:06;;;;;;;17.90;4.15;;;;;;;;;;5033513;28;20035;-87
2024/02/06 09:06:31;;;;;;;9.07;3.50;;;;;;;;;;5035089;28;20053;-87
2024/02/06 09:08:58;;;;;;;11.10;3.80;;;;;;;;;;5054601;28;20056;-88
2024/02/06 09:11:24;;;;;;;12.20;3.10;;;;;;;;;;5050226;28;20108;-87
2024/02/06 09:13:50;;;;;;;11.82;3.30;;;;;;;;;;5049496;28;20020;-86
2024/02/06 09:16:16;;;;;;;11.55;3.17;;;;;;;;;;5049886;28;20378;-87
2024/02/06 09:18:41;;;;;;;11.20;3.45;;;;;;;;;;5043163;28;20103;-87
2024/02/06 09:21:07;;;;;;;8.45;2.90;;;;;;;;;;5039159;28;20120;-87
2024/02/06 09:23:32;;;;;;;9.70;3.30;;;;;;;;;;5059390;28;20433;-87
2024/02/06 09:25:58;;;;;;;10.18;3.83;;;;;;;;;;5044638;28;20437;-86
2024/02/06 09:28:23;;;;;;;8.10;3.50;;;;;;;;;;5032393;28;20036;-88
2024/02/06 09:30:48;;;;;;;10.18;3.58;;;;;;;;;;5058669;28;20078;-87
2024/02/06 09:33:15;;;;;;;8.55;3.78;;;;;;;;;;5057860;28;20024;-87
2024/02/06 09:35:40;;;;;;;9.27;3.85;;;;;;;;;;5058465;28;20096;-88
2024/02/06 09:38:06;;;;;;;11.68;4.28;;;;;;;;;;5030791;28;20073;-87
2024/02/06 09:40:32;;;;;;;13.93;4.30;;;;;;;;;;5038512;28;20158;-78
2024/02/06 09:42:59;;;;;;;14.35;4.82;;;;;;;;;;5053770;28;20065;-78
2024/02/06 09:45:24;;;;;;;10.45;4.47;;;;;;;;;;5058564;28;20046;-78
2024/02/06 09:47:50;;;;;;;11.90;4.95;;;;;;;;;;5042099;28;20112;-78
2024/02/06 09:50:17;;;;;;;12.88;5.10;;;;;;;;;;5055685;28;20489;-78
2024/02/06 09:52:50;;;;;;;10.88;5.07;;;;;;;;;;5053061;28;20035;-78
2024/02/06 09:55:21;;;;;;;12.23;5.00;;;;;;;;;;5058819;28;20448;-78
2024/02/06 09:57:48;;;;;;;11.38;5.22;;;;;;;;;;5045892;28;20021;-79
2024/02/06 10:00:15;;;;;;;9.25;5.25;;;;;;;;;;5049928;28;20495;-78
2024/02/06 10:02:45;;;;;;;13.45;5.63;;;;;;;;;;5039176;28;20033;-78
2024/02/06 10:05:17;;;;;;;10.25;4.70;;;;;;;;;;5037808;28;20100;-78
2024/02/06 10:07:47;;;;;;;13.85;5.35;;;;;;;;;;5044831;28;20043;-78
2024/02/06 10:10:14;;;;;;;14.10;5.18;;;;;;;;;;5039790;28;20041;-78
2024/02/06 10:12:42;;;;;;;13.75;5.40;;;;;;;;;;5045753;28;20041;-78
2024/02/06 10:15:09;;;;;;;12.20;4.38;;;;;;;;;;5040652;28;20032;-78
2024/02/06 10:17:39;;;;;;;11.82;4.85;;;;;;;;;;5041633;28;20039;-78
2024/02/06 10:20:07;;;;;;;17.30;5.40;;;;;;;;;;5042890;28;20112;-78
2024/02/06 10:22:33;;;;;;;13.85;5.57;;;;;;;;;;5042049;28;20037;-77
2024/02/06 10:25:03;;;;;;;19.48;6.22;;;;;;;;;;5025713;28;20040;-78
2024/02/06 10:27:31;;;;;;;10.70;4.90;;;;;;;;;;5041323;28;20103;-78
2024/02/06 10:30:01;;;;;;;14.57;5.53;;;;;;;;;;5039496;28;20057;-78
2024/02/06 10:32:34;;;;;;;13.30;4.43;;;;;;;;;;5041673;28;20064;-78
2024/02/06 10:35:05;;;;;;;12.88;4.78;;;;;;;;;;5047579;28;20032;-78
2024/02/06 10:37:37;;;;;;;14.15;4.28;;;;;;;;;;5031959;28;20100;-78
2024/02/06 10:40:11;;;;;;;13.30;4.72;;;;;;;;;;5048984;28;20033;-78
2024/02/06 10:42:39;;;;;;;15.38;4.28;;;;;;;;;;5021952;28;20770;-78
2024/02/06 10:45:07;;;;;;;11.45;4.10;;;;;;;;;;5037785;28;20039;-78
2024/02/06 10:47:33;;;;;;;13.57;4.90;;;;;;;;;;5030872;28;20099;-78
2024/02/06 10:50:10;;;;;;;16.05;4.93;;;;;;;;;;5035567;28;20435;-79
2024/02/06 10:52:37;;;;;;;12.30;5.03;;;;;;;;;;5035949;28;20078;-78
2024/02/06 10:55:04;;;;;;;12.23;4.95;;;;;;;;;;5037776;28;20047;-78
2024/02/06 10:57:38;;;;;;;13.65;5.20;;;;;;;;;;5026681;28;20453;-78
2024/02/06 11:00:11;;;;;;;13.38;5.20;;;;;;;;;;5029863;28;20021;-79
2024/02/06 11:02:43;;;;;;;14.65;5.18;;;;;;;;;;5041797;28;20025;-79
2024/02/06 11:05:11;;;;;;;16.17;4.53;;;;;;;;;;5039413;28;20112;-79
2024/02/06 11:07:54;;;;;;;13.27;4.68;;;;;;;;;;5038847;28;20226;-79
2024/02/06 11:10:33;;;;;;;13.52;4.78;;;;;;;;;;5042429;28;20064;-79
2024/02/06 11:13:05;;;;;;;13.88;4.60;;;;;;;;;;5045519;28;20564;-79
2024/02/06 11:15:35;;;;;;;10.65;4.85;;;;;;;;;;5038248;28;20116;-79
2024/02/06 11:18:01;;;;;;;12.10;4.95;;;;;;;;;;5044433;28;20518;-79
2024/02/06 11:20:30;;;;;;;14.93;5.13;;;;;;;;;;5046596;28;20037;-79
2024/02/06 11:22:58;;;;;;;11.05;4.47;;;;;;;;;;5040834;28;20021;-79
2024/02/06 11:25:27;;;;;;;8.77;5.18;;;;;;;;;;5021551;28;20044;-79
2024/02/06 11:27:56;;;;;;;11.35;4.60;;;;;;;;;;5038643;28;20025;-79
2024/02/06 11:30:22;;;;;;;11.98;5.10;;;;;;;;;;5044666;28;20082;-79
2024/02/06 11:32:59;;;;;;;11.05;5.32;;;;;;;;;;5042606;28;20039;-79
2024/02/06 11:35:27;;;;;;;15.38;4.80;;;;;;;;;;5035745;28;20037;-79
2024/02/06 11:37:53;;;;;;;11.70;5.15;;;;;;;;;;5040193;28;20112;-79
2024/02/06 11:40:26;;;;;;;10.35;4.40;;;;;;;;;;5035063;28;20108;-79
2024/02/06 11:43:04;;;;;;;8.05;4.50;;;;;;;;;;5038842;28;20035;-79
2024/02/06 11:45:31;;;;;;;9.50;4.38;;;;;;;;;;5040317;28;20037;-79
2024/02/06 11:48:00;;;;;;;9.50;5.07;;;;;;;;;;5046760;28;20041;-79
2024/02/06 11:50:41;;;;;;;12.93;5.35;;;;;;;;;;5049128;28;20630;-79
2024/02/06 11:53:15;;;;;;;8.63;4.90;;;;;;;;;;5044837;28;20536;-79
2024/02/06 11:55:42;;;;;;;12.60;5.25;;;;;;;;;;5051910;28;20037;-79
2024/02/06 11:58:10;;;;;;;9.23;4.80;;;;;;;;;;5041131;28;20036;-79
2024/02/06 12:00:36;;;;;;;9.77;4.47;;;;;;;;;;5047037;28;20480;-87
2024/02/06 12:03:02;;;;;;;14.15;6.30;;;;;;;;;;5033969;28;20160;-86
2024/02/06 12:05:37;;;;;;;16.23;5.50;;;;;;;;;;5044168;28;20476;-87
2024/02/06 12:08:04;;;;;;;11.60;5.07;;;;;;;;;;5040070;28;20103;-87
2024/02/06 12:10:31;;;;;;;10.93;4.72;;;;;;;;;;5047563;28;20115;-87
2024/02/06 12:13:04;;;;;;;11.20;4.97;;;;;;;;;;5050217;28;20060;-86
2024/02/06 12:15:40;;;;;;;12.57;4.80;;;;;;;;;;5045201;28;20024;-87
2024/02/06 12:18:08;;;;;;;10.77;5.20;;;;;;;;;;5023239;28;20120;-86
2024/02/06 12:20:35;;;;;;;13.35;5.45;;;;;;;;;;5050379;28;20029;-87
2024/02/06 12:23:08;;;;;;;11.20;4.85;;;;;;;;;;5028493;28;20041;-87
2024/02/06 12:25:37;;;;;;;;;;;;;;;;;;5041940;28;20114;-86
2024/02/06 12:28:12;;;;;;;11.07;4.60;;;;;;;;;;5038754;28;19925;-87
2024/02/06 12:30:38;;;;;;;11.43;4.70;;;;;;;;;;5025821;28;20829;-87
2024/02/06 12:33:04;;;;;;;12.38;4.05;;;;;;;;;;5031879;28;20491;-87
2024/02/06 12:35:31;;;;;;;9.50;3.85;;;;;;;;;;5046721;28;20084;-87
2024/02/06 12:38:00;;;;;;;10.35;3.53;;;;;;;;;;5033321;28;20037;-87
2024/02/06 12:40:27;;;;;;;11.23;3.88;;;;;;;;;;5047590;28;20382;-87
2024/02/06 12:42:53;;;;;;;10.25;2.88;;;;;;;;;;5039903;28;20275;-86
2024/02/06 12:45:20;;;;;;;12.60;2.78;;;;;;;;;;5046822;28;20386;-87
2024/02/06 12:47:47;;;;;;;12.07;3.33;;;;;;;;;;5049699;28;20021;-87
2024/02/06 12:50:13;;;;;;;9.15;2.58;;;;;;;;;;5054679;28;20040;-87
2024/02/06 12:52:42;;;;;;;10.02;2.50;;;;;;;;;;5033616;28;20028;-87
2024/02/06 12:55:08;;;;;;;11.80;2.50;;;;;;;;;;5047500;28;20043;-87
2024/02/06 12:57:37;;;;;;;11.27;2.53;;;;;;;;;;5041557;28;20120;-87
2024/02/06 13:00:11;;;;;;;9.23;2.63;;;;;;;;;;5030109;28;20037;-86
2024/02/06 13:02:38;;;;;;;9.02;2.47;;;;;;;;;;5039147;28;20033;-87
2024/02/06 13:05:11;;;;;;;9.85;2.80;;;;;;;;;;5055139;28;20032;-86
2024/02/06 13:07:37;;;;;;;11.43;3.25;;;;;;;;;;5034926;28;20037;-87
2024/02/06 13:10:09;;;;;;;9.18;3.20;;;;;;;;;;5046283;28;20450;-87
2024/02/06 13:12:36;;;;;;;10.25;3.13;;;;;;;;;;5031853;28;20021;-87
2024/02/06 13:15:06;;;;;;;13.50;3.92;;;;;;;;;;5041263;28;20029;-86
2024/02/06 13:17:33;;;;;;;11.63;3.58;;;;;;;;;;5049560;28;20063;-87
2024/02/06 13:20:08;;;;;;;13.30;3.85;;;;;;;;;;5027481;28;20508;-86
2024/02/06 13:22:35;;;;;;;11.25;2.90;;;;;;;;;;5048322;28;20039;-87
2024/02/06 13:25:00;;;;;;;10.52;2.83;;;;;;;;;;5045761;28;20033;-87
2024/02/06 13:27:26;;;;;;;9.00;2.40;;;;;;;;;;5043820;28;20374;-87
2024/02/06 13:29:52;;;;;;;10.38;2.35;;;;;;;;;;5048852;28;20028;-86
2024/02/06 13:32:17;;;;;;;10.40;2.70;;;;;;;;;;5034699;28;20057;-88
2024/02/06 13:34:43;;;;;;;10.90;2.85;;;;;;;;;;5046537;28;20059;-88
2024/02/06 13:37:08;;;;;;;10.02;2.40;;;;;;;;;;5031062;28;20472;-87
2024/02/06 13:39:34;;;;;;;10.95;3.00;;;;;;;;;;5050929;28;20432;-88
2024/02/06 13:41:59;;;;;;;15.25;2.38;;;;;;;;;;5032371;28;20032;-87
2024/02/06 13:44:25;;;;;;;11.20;2.50;;;;;;;;;;5028909;28;20115;-87
2024/02/06 13:46:50;;;;;;;10.57;2.40;;;;;;;;;;5051033;28;20397;-87
2024/02/06 13:49:16;;;;;;;10.02;2.50;;;;;;;;;;5026355;28;20029;-86
2024/02/06 13:51:41;;;;;;;10.52;2.17;;;;;;;;;;5041005;28;20041;-87
2024/02/06 13:54:11;;;;;;;11.77;2.00;;;;;;;;;;5043542;28;20036;-86
2024/02/06 13:56:37;;;;;;;10.88;2.25;;;;;;;;;;5038754;28;20021;-87
2024/02/06 13:59:03;;;;;;;13.05;2.20;;;;;;;;;;5044043;28;20385;-87
2024/02/06 14:01:28;;;;;;;12.65;2.90;;;;;;;;;;5042141;28;20036;-87
2024/02/06 14:03:54;;;;;;;10.50;2.50;;;;;;;;;;5036301;28;20014;-86
2024/02/06 14:06:19;;;;;;;10.70;2.22;;;;;;;;;;5027282;28;20032;-85
2024/02/06 14:08:45;;;;;;;8.45;2.33;;;;;;;;;;5022446;28;20033;-86
2024/02/06 14:11:11;;;;;;;10.82;2.53;;;;;;;;;;5036776;28;20768;-86
2024/02/06 14:13:41;;;;;;;13.77;2.33;;;;;;;;;;5041445;28;20744;-86
2024/02/06 14:16:07;;;;;;;12.02;2.08;;;;;;;;;;5026018;28;20725;-86
2024/02/06 14:18:32;;;;;;;11.52;2.08;;;;;;;;;;5041198;28;20036;-86
2024/02/06 14:21:00;;;;;;;11.40;2.03;;;;;;;;;;5033825;28;20079;-80
2024/02/06 14:23:26;;;;;;;15.00;2.20;;;;;;;;;;5030467;28;20029;-79
2024/02/06 14:25:51;;;;;;;10.02;2.08;;;;;;;;;;5034194;28;20028;-79
2024/02/06 14:28:17;;;;;;;12.43;2.50;;;;;;;;;;5043445;28;20037;-79
2024/02/06 14:30:42;;;;;;;8.88;1.90;;;;;;;;;;5043512;28;20453;-79